Time;durP1;ratioP1;P1;durP2;ratioP2;P2;SDS_P1;SDS_P2;PMS_P1;PMS_P2;Temp;Humidity;BMP_temperature;BMP_pressure;BME280_temperature;BME280_humidity;BME280_pressure;Samples;Min_cycle;Max_cycle;Signal;HPM_P1;HPM_P2
2021/12/31 00:00:21;;;;;;;3.15;2.65;;;12.10;99.90;;;;;;4965911;28;20495;-48
2021/12/31 00:02:47;;;;;;;3.80;3.13;;;12.10;99.90;;;;;;4963757;28;20839;-51
2021/12/31 00:05:12;;;;;;;3.73;3.37;;;12.10;99.90;;;;;;4966076;28;20450;-47
2021/12/31 00:07:38;;;;;;;5.05;3.17;;;12.10;99.90;;;;;;4966261;28;20388;-51
2021/12/31 00:10:06;;;;;;;4.13;3.25;;;12.10;99.90;;;;;;4966503;28;20825;-48
2021/12/31 00:12:32;;;;;;;4.80;3.78;;;12.10;99.90;;;;;;4967617;28;20411;-47
2021/12/31 00:14:58;;;;;;;4.93;4.10;;;12.10;99.90;;;;;;4969430;28;20388;-46
2021/12/31 00:17:24;;;;;;;7.15;4.90;;;12.10;99.90;;;;;;4969489;28;20430;-46
2021/12/31 00:19:58;;;;;;;6.93;4.68;;;12.10;99.90;;;;;;4968698;28;20399;-46
2021/12/31 00:24:53;;;;;;;8.55;5.28;;;12.10;99.90;;;;;;4968244;28;20423;-47
2021/12/31 00:27:19;;;;;;;7.15;5.68;;;12.10;99.90;;;;;;4964063;28;20848;-46
2021/12/31 00:29:44;;;;;;;10.63;5.97;;;12.10;99.90;;;;;;4965301;28;20741;-46
2021/12/31 00:32:10;;;;;;;8.27;5.90;;;12.10;99.90;;;;;;4965774;28;20406;-46
2021/12/31 00:34:35;;;;;;;9.30;6.07;;;12.10;99.90;;;;;;4966892;28;20689;-47
2021/12/31 00:37:01;;;;;;;7.10;5.50;;;12.10;99.90;;;;;;4967396;28;20474;-48
2021/12/31 00:39:26;;;;;;;7.70;6.03;;;12.10;99.90;;;;;;4966080;28;20419;-48
2021/12/31 00:41:52;;;;;;;8.27;6.13;;;12.10;99.90;;;;;;4966875;28;20510;-48
2021/12/31 00:44:18;;;;;;;9.23;6.45;;;12.10;99.90;;;;;;4968326;28;20788;-48
2021/12/31 00:46:43;;;;;;;8.40;6.37;;;12.10;99.90;;;;;;4966284;28;20388;-48
2021/12/31 00:49:09;;;;;;;9.30;6.33;;;12.10;99.90;;;;;;4966602;28;20462;-48
2021/12/31 00:51:35;;;;;;;9.88;6.03;;;12.10;99.90;;;;;;4966080;28;20422;-49
2021/12/31 00:54:00;;;;;;;8.38;6.15;;;12.10;99.90;;;;;;4965217;28;20424;-49
2021/12/31 00:56:26;;;;;;;10.05;6.80;;;12.10;99.90;;;;;;4965809;28;20491;-46
2021/12/31 00:58:51;;;;;;;8.13;6.80;;;12.10;99.90;;;;;;4967131;28;20627;-46
2021/12/31 01:01:20;;;;;;;10.97;6.80;;;12.10;99.90;;;;;;4968244;28;20393;-49
2021/12/31 01:03:46;;;;;;;10.98;6.10;;;12.10;99.90;;;;;;4969655;28;20680;-50
2021/12/31 01:06:12;;;;;;;11.35;7.28;;;12.10;99.90;;;;;;4967729;28;20470;-47
2021/12/31 01:08:39;;;;;;;10.57;7.83;;;12.10;99.90;;;;;;4969656;28;20518;-47
2021/12/31 01:11:04;;;;;;;10.80;7.05;;;12.10;99.90;;;;;;4970241;28;20724;-48
2021/12/31 01:13:36;;;;;;;12.82;7.57;;;12.10;99.90;;;;;;4970290;28;20384;-49
2021/12/31 01:16:04;;;;;;;13.30;7.88;;;12.10;99.90;;;;;;4972827;28;20797;-46
2021/12/31 01:21:14;;;;;;;13.38;7.75;;;12.10;99.90;;;;;;4972534;28;20475;-46
2021/12/31 01:23:40;;;;;;;16.77;8.32;;;12.10;99.90;;;;;;4971330;28;20668;-48
2021/12/31 01:26:06;;;;;;;13.48;8.00;;;12.10;99.90;;;;;;4972354;28;20824;-46
2021/12/31 01:28:31;;;;;;;13.10;8.50;;;12.10;99.90;;;;;;4972661;28;20400;-50
2021/12/31 01:30:57;;;;;;;13.98;8.25;;;12.10;99.90;;;;;;4972951;28;20683;-47
2021/12/31 01:33:22;;;;;;;13.33;8.77;;;12.10;99.90;;;;;;4973001;28;20470;-49
2021/12/31 01:35:48;;;;;;;15.50;9.17;;;12.10;99.90;;;;;;4973378;28;20396;-51
2021/12/31 01:38:15;;;;;;;14.70;8.90;;;12.10;99.90;;;;;;4975059;28;20749;-48
2021/12/31 01:40:41;;;;;;;16.53;8.90;;;12.10;99.90;;;;;;4976439;28;20487;-49
2021/12/31 01:43:07;;;;;;;13.40;8.73;;;12.10;99.90;;;;;;4976784;28;20490;-50
2021/12/31 01:45:42;;;;;;;16.40;8.13;;;12.10;99.90;;;;;;4975387;28;20458;-46
2021/12/31 01:48:20;;;;;;;14.25;7.65;;;12.10;99.90;;;;;;4976352;28;20388;-46
2021/12/31 01:50:46;;;;;;;15.38;7.40;;;12.10;99.90;;;;;;4976198;28;20410;-47
2021/12/31 01:53:13;;;;;;;14.95;7.95;;;12.10;99.90;;;;;;4974853;28;21030;-47
2021/12/31 01:55:40;;;;;;;16.43;8.03;;;12.10;99.90;;;;;;4975443;28;20503;-50
2021/12/31 01:58:09;;;;;;;17.80;7.53;;;12.10;99.90;;;;;;4977466;28;20705;-47
2021/12/31 02:00:36;;;;;;;12.63;7.18;;;12.10;99.90;;;;;;4977474;28;20396;-48
2021/12/31 02:03:03;;;;;;;15.73;6.78;;;12.10;99.90;;;;;;4976486;28;20396;-49
2021/12/31 02:05:29;;;;;;;13.98;7.03;;;12.10;99.90;;;;;;4977514;28;20513;-49
2021/12/31 02:07:54;;;;;;;13.45;6.55;;;12.10;99.90;;;;;;4976635;28;20466;-46
2021/12/31 02:10:20;;;;;;;12.47;7.03;;;12.00;99.90;;;;;;4975579;28;20407;-47
2021/12/31 02:12:48;;;;;;;17.83;6.87;;;12.00;99.90;;;;;;4977043;28;20419;-48
2021/12/31 02:15:16;;;;;;;18.95;6.65;;;12.00;99.90;;;;;;4976113;28;20540;-50
2021/12/31 02:17:44;;;;;;;17.42;6.50;;;12.00;99.90;;;;;;4976039;28;20607;-49
2021/12/31 02:20:10;;;;;;;18.05;6.45;;;12.00;99.90;;;;;;4976210;28;20808;-46
2021/12/31 02:22:42;;;;;;;13.77;6.23;;;12.00;99.90;;;;;;4975503;28;20434;-48
2021/12/31 02:25:09;;;;;;;21.75;6.85;;;12.00;99.90;;;;;;4974824;28;20404;-47
2021/12/31 02:27:38;;;;;;;18.08;6.57;;;12.00;99.90;;;;;;4975286;28;20495;-47
2021/12/31 02:30:05;;;;;;;16.50;5.95;;;12.00;99.90;;;;;;4976713;28;20394;-46
2021/12/31 02:32:31;;;;;;;18.38;6.00;;;12.00;99.90;;;;;;4976273;28;20414;-46
2021/12/31 02:34:56;;;;;;;21.48;6.28;;;12.00;99.90;;;;;;4975270;28;20660;-51
2021/12/31 02:37:22;;;;;;;15.50;5.68;;;12.00;99.90;;;;;;4974709;28;20388;-47
2021/12/31 02:39:48;;;;;;;20.27;6.23;;;12.00;99.90;;;;;;4972910;28;20408;-46
2021/12/31 02:42:13;;;;;;;18.37;6.50;;;12.00;99.90;;;;;;4972579;28;20416;-49
2021/12/31 02:44:40;;;;;;;19.17;6.27;;;12.00;99.90;;;;;;4973106;28;20784;-47
2021/12/31 02:47:06;;;;;;;14.80;6.40;;;12.00;99.90;;;;;;4971986;28;20403;-50
2021/12/31 02:49:39;;;;;;;14.67;5.70;;;12.00;99.90;;;;;;4972494;28;20491;-46
2021/12/31 02:52:07;;;;;;;20.88;6.03;;;12.00;99.90;;;;;;4975885;28;20474;-49
2021/12/31 02:54:37;;;;;;;14.30;5.70;;;12.00;99.90;;;;;;4974294;28;20686;-48
2021/12/31 02:57:05;;;;;;;18.70;6.72;;;12.00;99.90;;;;;;4975220;28;20497;-48
2021/12/31 02:59:30;;;;;;;17.13;5.95;;;12.00;99.90;;;;;;4974074;28;20813;-46
2021/12/31 03:01:57;;;;;;;16.93;6.17;;;12.00;99.90;;;;;;4974734;28;20403;-48
2021/12/31 03:04:25;;;;;;;15.13;5.85;;;12.00;99.90;;;;;;4974474;28;20396;-47
2021/12/31 03:06:52;;;;;;;19.33;5.95;;;12.00;99.90;;;;;;4974379;28;20491;-48
2021/12/31 03:09:23;;;;;;;13.67;5.90;;;12.00;99.90;;;;;;4974763;28;20404;-48
2021/12/31 03:11:52;;;;;;;13.87;6.10;;;12.00;99.90;;;;;;4975451;28;20477;-50
2021/12/31 03:14:18;;;;;;;19.50;6.60;;;12.00;99.90;;;;;;4974552;28;20483;-50
2021/12/31 03:16:45;;;;;;;15.30;6.43;;;12.00;99.90;;;;;;4975262;28;20392;-48
2021/12/31 03:19:12;;;;;;;15.02;6.10;;;12.00;99.90;;;;;;4976591;28;20414;-46
2021/12/31 03:21:38;;;;;;;13.77;5.75;;;12.00;99.90;;;;;;4977368;28;20784;-46
2021/12/31 03:24:04;;;;;;;15.13;5.50;;;12.10;99.90;;;;;;4974956;28;20414;-46
2021/12/31 03:26:29;;;;;;;17.95;5.32;;;12.00;99.90;;;;;;4975086;28;20392;-45
2021/12/31 03:28:55;;;;;;;17.37;5.60;;;12.10;99.90;;;;;;4974163;28;20639;-46
2021/12/31 03:31:20;;;;;;;16.20;5.43;;;12.10;99.90;;;;;;4972252;28;20503;-46
2021/12/31 03:33:46;;;;;;;14.95;5.50;;;12.10;99.90;;;;;;4971897;28;20451;-47
2021/12/31 03:36:11;;;;;;;15.05;5.45;;;12.10;99.90;;;;;;4971800;28;20801;-47
2021/12/31 03:38:37;;;;;;;13.23;5.20;;;12.10;99.90;;;;;;4972915;28;20490;-46
2021/12/31 03:41:03;;;;;;;17.15;5.25;;;12.00;99.90;;;;;;4974402;28;20395;-48
2021/12/31 03:43:28;;;;;;;16.63;5.55;;;12.10;99.90;;;;;;4974342;28;20399;-48
2021/12/31 03:45:54;;;;;;;14.80;5.40;;;12.10;99.90;;;;;;4972798;28;20459;-48
2021/12/31 03:48:20;;;;;;;12.33;5.40;;;12.00;99.90;;;;;;4974788;28;20400;-48
2021/12/31 03:50:46;;;;;;;14.52;4.85;;;12.00;99.90;;;;;;4976354;28;20396;-47
2021/12/31 03:53:14;;;;;;;17.30;5.30;;;12.00;99.90;;;;;;4974209;28;20502;-48
2021/12/31 03:55:40;;;;;;;11.70;4.95;;;12.00;99.90;;;;;;4973352;28;20528;-49
2021/12/31 03:58:05;;;;;;;12.57;4.87;;;12.00;99.90;;;;;;4973892;28;20863;-49
2021/12/31 04:00:31;;;;;;;15.10;5.07;;;12.00;99.90;;;;;;4973276;28;20392;-50
2021/12/31 04:02:57;;;;;;;16.25;5.50;;;12.00;99.90;;;;;;4973651;28;20396;-49
2021/12/31 04:05:25;;;;;;;12.48;4.72;;;12.00;99.90;;;;;;4972778;28;20395;-49
2021/12/31 04:07:52;;;;;;;13.63;5.07;;;12.00;99.90;;;;;;4971292;28;20400;-47
2021/12/31 04:10:17;;;;;;;14.88;4.90;;;12.00;99.90;;;;;;4972709;28;20494;-46
2021/12/31 04:12:43;;;;;;;13.38;5.22;;;12.00;99.90;;;;;;4974088;28;20498;-49
2021/12/31 04:15:09;;;;;;;13.60;5.05;;;12.00;99.90;;;;;;4973849;28;20404;-51
2021/12/31 04:17:35;;;;;;;18.25;5.28;;;12.00;99.90;;;;;;4974003;28;20831;-46
2021/12/31 04:20:00;;;;;;;15.38;5.70;;;12.00;99.90;;;;;;4974124;28;20791;-47
2021/12/31 04:22:28;;;;;;;15.07;5.15;;;12.00;99.90;;;;;;4973866;28;20491;-48
2021/12/31 04:24:54;;;;;;;15.35;5.50;;;12.00;99.90;;;;;;4972954;28;20403;-48
2021/12/31 04:27:21;;;;;;;16.30;5.10;;;12.00;99.90;;;;;;4973474;28;20396;-49
2021/12/31 04:29:51;;;;;;;14.50;5.13;;;12.00;99.90;;;;;;4974886;28;20388;-48
2021/12/31 04:32:21;;;;;;;16.52;4.57;;;12.00;99.90;;;;;;4973699;28;20392;-50
2021/12/31 04:34:47;;;;;;;13.60;5.00;;;12.00;99.90;;;;;;4974356;28;20479;-46
2021/12/31 04:37:12;;;;;;;15.95;5.10;;;11.90;99.90;;;;;;4970400;28;20475;-46
2021/12/31 04:39:38;;;;;;;18.55;5.63;;;11.90;99.90;;;;;;4970336;28;20443;-50
2021/12/31 04:42:04;;;;;;;16.03;4.87;;;11.90;99.90;;;;;;4972612;28;20439;-48
2021/12/31 04:44:29;;;;;;;14.07;5.10;;;11.90;99.90;;;;;;4973711;28;20675;-48
2021/12/31 04:46:55;;;;;;;14.07;4.53;;;11.90;99.90;;;;;;4973069;28;20796;-46
2021/12/31 04:49:20;;;;;;;14.55;4.50;;;11.90;99.90;;;;;;4973462;28;20396;-46
2021/12/31 04:51:46;;;;;;;11.73;4.10;;;11.90;99.90;;;;;;4972044;28;20392;-48
2021/12/31 04:54:15;;;;;;;14.17;4.63;;;11.90;99.90;;;;;;4972019;28;20936;-48
2021/12/31 04:56:43;;;;;;;12.88;4.28;;;12.00;99.90;;;;;;4973243;28;20625;-47
2021/12/31 04:59:09;;;;;;;13.70;4.47;;;11.90;99.90;;;;;;4971516;28;20681;-46
2021/12/31 05:01:35;;;;;;;10.15;3.88;;;11.90;99.90;;;;;;4970739;28;20384;-46
2021/12/31 05:04:01;;;;;;;14.10;4.18;;;11.90;99.90;;;;;;4971602;28;20427;-46
2021/12/31 05:06:26;;;;;;;10.50;3.87;;;12.00;99.90;;;;;;4970849;28;20402;-46
2021/12/31 05:08:52;;;;;;;13.47;3.87;;;12.00;99.90;;;;;;4972181;28;20438;-46
2021/12/31 05:11:17;;;;;;;13.63;4.03;;;12.00;99.90;;;;;;4972743;28;20400;-46
2021/12/31 05:13:43;;;;;;;12.02;4.05;;;12.00;99.90;;;;;;4972053;28;20404;-48
2021/12/31 05:16:09;;;;;;;14.97;4.13;;;12.00;99.90;;;;;;4972304;28;20450;-48
2021/12/31 05:18:34;;;;;;;14.20;3.97;;;12.00;99.90;;;;;;4972455;28;20757;-48
2021/12/31 05:21:00;;;;;;;11.32;4.10;;;12.00;99.90;;;;;;4972276;28;20395;-46
2021/12/31 05:23:26;;;;;;;12.88;4.10;;;12.10;99.90;;;;;;4973579;28;20474;-57
2021/12/31 05:25:51;;;;;;;16.75;3.92;;;12.10;99.90;;;;;;4974148;28;20404;-48
2021/12/31 05:28:18;;;;;;;10.80;3.73;;;12.10;99.90;;;;;;4972148;28;20482;-47
2021/12/31 05:30:43;;;;;;;8.52;3.35;;;12.10;99.90;;;;;;4972423;28;20396;-47
2021/12/31 05:33:09;;;;;;;9.52;3.53;;;12.10;99.90;;;;;;4970814;28;20400;-46
2021/12/31 05:35:34;;;;;;;11.90;3.50;;;12.10;99.90;;;;;;4971127;28;20427;-47
2021/12/31 05:38:00;;;;;;;14.13;4.37;;;12.10;99.90;;;;;;4970055;28;20423;-48
2021/12/31 05:40:26;;;;;;;9.65;3.45;;;12.10;99.90;;;;;;4970697;28;20797;-46
2021/12/31 05:42:52;;;;;;;11.25;3.70;;;12.10;99.90;;;;;;4972288;28;20487;-47
2021/12/31 05:45:17;;;;;;;12.07;3.70;;;12.10;99.90;;;;;;4972050;28;20681;-46
2021/12/31 05:47:43;;;;;;;11.05;3.50;;;12.20;99.90;;;;;;4973437;28;20404;-48
2021/12/31 05:50:19;;;;;;;9.23;3.67;;;12.20;99.90;;;;;;4974279;28;20885;-52
2021/12/31 05:52:45;;;;;;;10.52;3.67;;;12.20;99.90;;;;;;4975580;28;20411;-48
2021/12/31 05:55:11;;;;;;;11.98;4.28;;;12.30;99.90;;;;;;4973434;28;20550;-50
2021/12/31 05:57:37;;;;;;;9.68;3.95;;;12.30;99.90;;;;;;4972519;28;20417;-50
2021/12/31 06:00:03;;;;;;;9.38;3.70;;;12.30;99.90;;;;;;4971405;28;20401;-47
2021/12/31 06:02:29;;;;;;;9.75;3.97;;;12.40;99.90;;;;;;4988017;28;20398;-47
2021/12/31 06:04:54;;;;;;;9.27;4.00;;;12.50;99.90;;;;;;4970409;28;20398;-46
2021/12/31 06:07:20;;;;;;;9.82;4.40;;;12.50;99.90;;;;;;4967891;28;20429;-47
2021/12/31 06:09:45;;;;;;;11.97;4.00;;;12.50;99.90;;;;;;4968636;28;20633;-51
2021/12/31 06:12:11;;;;;;;10.45;4.10;;;12.60;99.90;;;;;;4969368;28;20397;-46
2021/12/31 06:14:37;;;;;;;13.35;4.20;;;12.60;99.90;;;;;;4970674;28;20400;-46
2021/12/31 06:17:06;;;;;;;10.13;4.18;;;12.60;99.90;;;;;;4988299;28;20679;-51
2021/12/31 06:19:33;;;;;;;12.52;4.50;;;12.60;99.90;;;;;;4986909;28;20413;-46
2021/12/31 06:21:59;;;;;;;12.23;4.70;;;12.70;99.90;;;;;;4970819;28;20656;-47
2021/12/31 06:24:25;;;;;;;9.30;3.70;;;12.70;99.90;;;;;;4972438;28;20874;-46
2021/12/31 06:26:51;;;;;;;9.32;4.10;;;12.70;99.90;;;;;;4975919;28;20398;-46
2021/12/31 06:29:16;;;;;;;7.40;4.00;;;12.70;99.90;;;;;;4974284;28;20756;-47
2021/12/31 06:31:42;;;;;;;10.30;4.00;;;12.70;99.90;;;;;;4974561;28;20751;-46
2021/12/31 06:34:07;;;;;;;10.63;4.65;;;12.70;99.90;;;;;;4988002;28;20404;-46
2021/12/31 06:36:33;;;;;;;8.33;4.20;;;12.70;99.90;;;;;;5018105;28;20724;-46
2021/12/31 06:39:01;;;;;;;8.88;4.55;;;12.70;99.90;;;;;;5017828;28;20432;-46
2021/12/31 06:41:27;;;;;;;11.85;4.85;;;12.70;99.90;;;;;;4997546;28;20407;-46
2021/12/31 06:43:52;;;;;;;11.57;5.17;;;12.70;99.90;;;;;;4998095;28;20389;-45
2021/12/31 06:46:20;;;;;;;9.67;4.47;;;12.70;99.90;;;;;;5014349;28;20423;-49
2021/12/31 06:48:46;;;;;;;10.82;4.90;;;12.70;99.90;;;;;;5013111;28;20479;-50
2021/12/31 06:51:11;;;;;;;11.27;5.03;;;12.70;99.90;;;;;;4996458;28;20427;-46
2021/12/31 06:53:37;;;;;;;9.37;5.10;;;12.70;99.90;;;;;;5011963;28;20420;-46
2021/12/31 06:56:03;;;;;;;9.10;5.43;;;12.70;99.90;;;;;;4993722;28;20694;-49
2021/12/31 06:58:28;;;;;;;9.93;5.10;;;12.70;99.90;;;;;;4993664;28;20412;-47
2021/12/31 07:00:54;;;;;;;9.93;5.50;;;12.60;99.90;;;;;;5010505;28;20800;-46
2021/12/31 07:03:19;;;;;;;9.60;4.73;;;12.70;99.90;;;;;;4996157;28;20400;-46
2021/12/31 07:05:45;;;;;;;11.13;5.75;;;12.70;99.90;;;;;;4995964;28;20399;-46
2021/12/31 07:08:13;;;;;;;9.35;4.80;;;12.70;99.90;;;;;;4995592;28;20397;-47
2021/12/31 07:10:38;;;;;;;11.02;5.40;;;12.70;99.90;;;;;;4993839;28;20685;-48
2021/12/31 07:13:10;;;;;;;10.97;5.60;;;12.70;99.90;;;;;;4994787;28;20836;-47
2021/12/31 07:15:40;;;;;;;8.65;5.13;;;12.70;99.90;;;;;;4995303;28;20697;-49
2021/12/31 07:18:06;;;;;;;14.13;5.37;;;12.70;99.90;;;;;;4996047;28;20462;-48
2021/12/31 07:20:32;;;;;;;9.90;5.33;;;12.70;99.90;;;;;;4995294;28;20380;-46
2021/12/31 07:23:06;;;;;;;9.63;5.50;;;12.80;99.90;;;;;;4993515;28;20547;-48
2021/12/31 07:25:32;;;;;;;10.02;5.47;;;12.80;99.90;;;;;;4993204;28;20659;-48
2021/12/31 07:27:58;;;;;;;11.55;5.47;;;12.80;99.90;;;;;;4994497;28;20391;-46
2021/12/31 07:30:24;;;;;;;8.95;5.25;;;12.80;99.90;;;;;;4993525;28;20805;-46
2021/12/31 07:32:49;;;;;;;9.95;5.75;;;12.70;99.90;;;;;;4994459;28;20831;-48
2021/12/31 07:35:15;;;;;;;8.87;5.70;;;12.80;99.90;;;;;;4994457;28;20393;-46
2021/12/31 07:37:40;;;;;;;8.00;5.40;;;12.80;99.90;;;;;;4992422;28;20440;-47
2021/12/31 07:40:10;;;;;;;11.70;5.85;;;12.80;99.90;;;;;;4993052;28;20393;-46
2021/12/31 07:42:35;;;;;;;7.43;5.50;;;12.80;99.90;;;;;;5012139;28;20454;-47
2021/12/31 07:45:01;;;;;;;8.15;5.40;;;12.80;99.90;;;;;;4994078;28;20385;-50
2021/12/31 07:47:26;;;;;;;7.90;5.10;;;12.80;99.90;;;;;;4992960;28;20392;-46
2021/12/31 07:49:52;;;;;;;8.10;5.17;;;12.90;99.90;;;;;;5009512;28;20384;-49
2021/12/31 07:52:17;;;;;;;8.80;5.30;;;12.90;99.90;;;;;;4990596;28;20631;-45
2021/12/31 07:54:43;;;;;;;7.90;5.30;;;12.90;99.90;;;;;;4988704;28;20422;-47
2021/12/31 07:57:08;;;;;;;8.27;4.80;;;12.90;99.90;;;;;;4989296;28;20406;-47
2021/12/31 07:59:34;;;;;;;7.37;5.10;;;12.90;99.90;;;;;;4989453;28;20468;-49
2021/12/31 08:01:59;;;;;;;7.30;5.50;;;12.90;99.90;;;;;;4985505;28;20570;-47
2021/12/31 08:04:25;;;;;;;7.37;4.90;;;12.90;99.90;;;;;;4988185;28;20459;-46
2021/12/31 08:06:50;;;;;;;8.73;5.20;;;12.90;99.90;;;;;;4989401;28;20413;-46
2021/12/31 08:09:16;;;;;;;6.05;4.65;;;13.00;99.90;;;;;;4988409;28;20824;-48
2021/12/31 08:11:41;;;;;;;;;;;13.00;99.90;;;;;;4988503;28;20041;-50
2021/12/31 08:14:07;;;;;;;;;;;13.00;99.90;;;;;;4987168;28;19906;-46
2021/12/31 08:16:32;;;;;;;;;;;13.00;99.90;;;;;;4989510;28;19970;-45
2021/12/31 08:18:58;;;;;;;;;;;13.00;99.90;;;;;;4990715;28;19980;-46
2021/12/31 08:21:23;;;;;;;8.93;4.60;;;12.90;99.90;;;;;;4990012;28;20485;-49
2021/12/31 08:23:49;;;;;;;8.10;4.43;;;13.00;99.90;;;;;;4990424;28;20303;-48
2021/12/31 08:26:14;;;;;;;8.80;4.90;;;13.00;99.90;;;;;;4992659;28;20252;-46
2021/12/31 08:28:40;;;;;;;7.37;4.40;;;13.00;99.90;;;;;;4992013;28;20176;-47
2021/12/31 08:31:06;;;;;;;5.43;4.13;;;13.00;99.90;;;;;;4991936;28;20167;-48
2021/12/31 08:33:31;;;;;;;8.77;4.27;;;13.00;99.90;;;;;;4991154;28;20171;-47
2021/12/31 08:35:57;;;;;;;6.00;3.80;;;13.00;99.90;;;;;;4988047;28;20182;-49
2021/12/31 08:38:24;;;;;;;6.80;4.60;;;13.00;99.90;;;;;;4987331;28;20215;-50
2021/12/31 08:40:49;;;;;;;5.23;4.37;;;13.10;99.90;;;;;;4988620;28;20392;-48
2021/12/31 08:43:15;;;;;;;7.43;4.10;;;13.10;99.90;;;;;;4990455;28;20187;-46
2021/12/31 08:45:41;;;;;;;5.27;3.93;;;13.10;99.90;;;;;;4991497;28;20167;-46
2021/12/31 08:48:06;;;;;;;6.67;3.63;;;13.10;99.90;;;;;;4990243;28;20175;-48
2021/12/31 08:50:33;;;;;;;5.67;3.80;;;13.10;99.90;;;;;;4990066;28;20171;-49
2021/12/31 08:52:59;;;;;;;7.30;3.60;;;13.10;99.90;;;;;;4989088;28;20724;-46
2021/12/31 08:55:24;;;;;;;4.90;4.17;;;13.20;99.90;;;;;;4988768;28;20791;-46
2021/12/31 08:57:50;;;;;;;6.07;3.30;;;13.20;99.90;;;;;;4987596;28;20430;-45
2021/12/31 09:00:17;;;;;;;8.20;3.10;;;13.20;99.90;;;;;;4988881;28;20552;-48
2021/12/31 09:02:45;;;;;;;6.10;2.93;;;13.20;99.90;;;;;;4991046;28;20355;-50
2021/12/31 09:05:11;;;;;;;8.10;3.80;;;13.20;99.90;;;;;;4991391;28;20202;-46
2021/12/31 09:07:37;;;;;;;5.13;3.07;;;13.20;99.90;;;;;;4992158;28;20382;-49
2021/12/31 09:10:04;;;;;;;6.90;3.40;;;13.20;99.90;;;;;;4992950;28;20218;-50
2021/12/31 09:12:30;;;;;;;7.57;3.00;;;13.20;99.90;;;;;;4992005;28;20502;-47
2021/12/31 09:14:55;;;;;;;5.83;2.70;;;13.20;99.90;;;;;;4988825;28;20631;-46
2021/12/31 09:17:22;;;;;;;7.27;2.83;;;13.20;99.90;;;;;;4992257;28;20170;-50
2021/12/31 09:19:48;;;;;;;6.47;2.83;;;13.20;99.90;;;;;;4991309;28;20205;-46
2021/12/31 09:22:14;;;;;;;6.07;3.40;;;13.30;99.90;;;;;;4990286;28;20271;-46
2021/12/31 09:24:39;;;;;;;2.97;2.40;;;13.30;99.90;;;;;;4988705;28;20270;-46
2021/12/31 09:27:05;;;;;;;9.17;2.70;;;13.30;99.90;;;;;;4992194;28;20267;-51
2021/12/31 09:29:31;;;;;;;5.70;3.00;;;13.30;99.90;;;;;;4992613;28;20202;-49
2021/12/31 09:31:57;;;;;;;2.40;2.07;;;13.30;99.90;;;;;;4994639;28;20160;-50
2021/12/31 09:34:23;;;;;;;6.20;2.90;;;13.30;99.90;;;;;;4994515;28;20465;-49
2021/12/31 09:36:50;;;;;;;4.50;3.00;;;13.30;99.90;;;;;;4993432;28;20172;-52
2021/12/31 09:39:15;;;;;;;2.93;2.40;;;13.30;99.90;;;;;;4993931;28;20211;-49
2021/12/31 09:41:43;;;;;;;4.43;2.00;;;13.30;99.90;;;;;;4994952;28;20230;-48
2021/12/31 09:44:14;;;;;;;3.60;2.20;;;13.30;99.90;;;;;;4993644;28;20571;-46
2021/12/31 09:46:40;;;;;;;3.43;2.10;;;13.30;99.90;;;;;;4994788;28;20221;-46
2021/12/31 09:49:06;;;;;;;3.77;2.23;;;13.30;99.90;;;;;;4994083;28;20168;-47
2021/12/31 09:51:33;;;;;;;2.90;2.30;;;13.30;99.90;;;;;;4993718;28;20199;-47
2021/12/31 09:54:01;;;;;;;7.67;2.43;;;13.20;99.90;;;;;;4984454;28;20637;-54
2021/12/31 09:56:28;;;;;;;3.97;2.13;;;13.20;99.90;;;;;;4976602;28;20211;-54
2021/12/31 09:58:54;;;;;;;3.40;2.20;;;13.30;99.90;;;;;;4975306;28;20207;-51
2021/12/31 10:01:21;;;;;;;6.60;2.60;;;13.40;99.90;;;;;;4978993;28;20180;-47
2021/12/31 10:04:04;;;;;;;3.23;2.13;;;13.30;99.90;;;;;;4979857;28;20624;-49
2021/12/31 10:06:30;;;;;;;3.27;2.47;;;13.30;99.90;;;;;;4977624;28;20204;-49
2021/12/31 10:09:02;;;;;;;6.33;2.27;;;13.30;99.90;;;;;;4976989;28;20230;-48
2021/12/31 10:11:28;;;;;;;4.70;2.37;;;13.30;99.90;;;;;;4976922;28;20207;-49
2021/12/31 10:14:02;;;;;;;6.97;2.53;;;13.20;99.90;;;;;;4978528;28;20491;-50
2021/12/31 10:16:41;;;;;;;5.07;2.20;;;13.20;99.90;;;;;;4979187;28;20176;-48
2021/12/31 10:19:09;;;;;;;3.70;2.00;;;13.30;99.90;;;;;;4977348;28;20562;-49
2021/12/31 10:21:38;;;;;;;6.77;2.47;;;13.30;99.90;;;;;;4978071;28;20184;-48
2021/12/31 10:24:21;;;;;;;3.17;2.37;;;13.30;99.90;;;;;;4977437;28;20180;-50
2021/12/31 10:26:48;;;;;;;5.70;2.93;;;13.20;99.90;;;;;;4976673;28;20172;-51
2021/12/31 10:29:14;;;;;;;5.33;2.33;;;13.20;99.90;;;;;;4977776;28;20183;-49
2021/12/31 10:31:45;;;;;;;3.93;2.20;;;13.20;99.90;;;;;;4960067;28;20181;-48
2021/12/31 10:34:30;;;;;;;3.73;2.40;;;13.20;99.90;;;;;;4957589;29;20228;-50
2021/12/31 10:37:14;;;;;;;6.00;2.80;;;13.20;99.90;;;;;;4957288;29;20288;-46
2021/12/31 10:39:40;;;;;;;4.67;2.80;;;13.20;99.90;;;;;;4959577;29;20234;-52
2021/12/31 10:42:10;;;;;;;3.70;2.73;;;13.20;99.90;;;;;;4958301;29;20473;-47
2021/12/31 10:44:53;;;;;;;4.63;2.93;;;13.20;99.90;;;;;;4957595;29;20337;-50
2021/12/31 10:47:22;;;;;;;6.37;2.93;;;13.20;99.90;;;;;;4957643;29;20180;-48
2021/12/31 10:50:00;;;;;;;4.90;2.50;;;13.20;99.90;;;;;;4957863;29;20259;-49
2021/12/31 10:52:34;;;;;;;5.30;2.77;;;13.20;99.90;;;;;;4957949;29;20172;-49
2021/12/31 10:55:03;;;;;;;3.30;2.27;;;13.20;99.90;;;;;;4957569;29;20271;-49
2021/12/31 10:57:38;;;;;;;5.07;2.50;;;13.30;99.90;;;;;;4957244;29;20186;-47
2021/12/31 11:00:06;;;;;;;3.30;2.30;;;13.20;99.90;;;;;;4956607;29;20204;-48
2021/12/31 11:02:34;;;;;;;4.17;2.63;;;13.30;99.90;;;;;;4958599;28;20529;-46
2021/12/31 11:04:59;;;;;;;5.20;2.60;;;13.20;99.90;;;;;;4958087;29;20289;-48
2021/12/31 11:07:28;;;;;;;;;;;13.20;99.90;;;;;;4958504;29;20347;-49
2021/12/31 11:09:55;;;;;;;;;;;13.30;99.90;;;;;;4959403;29;19926;-47
2021/12/31 11:12:21;;;;;;;;;;;13.20;99.90;;;;;;4972817;28;19913;-51
2021/12/31 11:14:54;;;;;;;;;;;13.30;99.90;;;;;;4959487;29;19906;-50
2021/12/31 11:17:20;;;;;;;;;;;13.20;99.90;;;;;;4973582;28;20276;-47
2021/12/31 11:19:48;;;;;;;;;;;13.30;99.90;;;;;;4977466;28;19910;-47
2021/12/31 11:22:14;;;;;;;;;;;13.30;99.90;;;;;;4979093;28;19906;-47
2021/12/31 11:24:39;;;;;;;;;;;13.30;99.90;;;;;;4978042;28;19914;-51
2021/12/31 11:27:27;;;;;;;;;;;13.30;99.90;;;;;;4978808;28;19913;-47
2021/12/31 11:29:52;;;;;;;;;;;13.20;99.90;;;;;;4977507;28;19917;-49
2021/12/31 11:32:39;;;;;;;;;;;13.30;99.90;;;;;;4976003;28;19910;-48
2021/12/31 11:35:23;;;;;;;;;;;13.30;99.90;;;;;;4976737;28;19978;-46
2021/12/31 11:37:49;;;;;;;;;;;13.30;99.90;;;;;;4977404;28;19930;-47
2021/12/31 11:40:31;;;;;;;;;;;13.30;99.90;;;;;;4976973;28;19914;-47
2021/12/31 11:43:13;;;;;;;;;;;13.30;99.90;;;;;;4976807;28;20714;-46
2021/12/31 11:45:40;;;;;;;;;;;13.30;99.90;;;;;;4977904;28;19932;-46
2021/12/31 11:48:24;;;;;;;;;;;13.30;99.90;;;;;;4977282;28;19913;-50
2021/12/31 11:51:03;;;;;;;;;;;13.30;99.90;;;;;;4975763;28;19906;-48
2021/12/31 11:53:28;;;;;;;;;;;13.30;99.90;;;;;;4973206;28;20247;-46
2021/12/31 11:55:54;;;;;;;;;;;13.30;99.90;;;;;;4975972;28;19906;-48
2021/12/31 11:58:35;;;;;;;;;;;13.30;99.90;;;;;;4975746;28;19921;-48
2021/12/31 12:01:21;;;;;;;;;;;13.30;99.90;;;;;;4976877;28;20342;-49
2021/12/31 12:03:46;;;;;;;6.07;3.00;;;13.30;99.90;;;;;;4965315;28;20411;-50
2021/12/31 12:06:50;;;;;;;6.33;2.90;;;13.30;99.90;;;;;;4975924;28;20400;-48
2021/12/31 12:09:15;;;;;;;6.57;2.97;;;13.20;99.90;;;;;;4976493;28;20412;-47
2021/12/31 12:12:04;;;;;;;4.60;2.90;;;13.20;99.90;;;;;;4975662;28;20399;-49
2021/12/31 12:14:36;;;;;;;5.57;2.85;;;13.20;99.90;;;;;;4975620;28;20392;-49
2021/12/31 12:17:02;;;;;;;3.90;2.63;;;13.20;99.90;;;;;;4975186;28;20388;-51
2021/12/31 12:19:46;;;;;;;4.70;2.60;;;13.20;99.90;;;;;;4975675;28;20423;-48
2021/12/31 12:22:34;;;;;;;4.70;2.85;;;13.10;99.90;;;;;;4976095;28;20413;-46
2021/12/31 12:25:08;;;;;;;3.53;2.90;;;13.00;99.90;;;;;;4975260;28;20415;-48
2021/12/31 12:27:34;;;;;;;3.80;2.95;;;13.00;99.90;;;;;;4975949;28;20535;-46
2021/12/31 12:30:02;;;;;;;5.68;3.20;;;12.90;99.90;;;;;;4975977;28;20808;-45
2021/12/31 12:32:51;;;;;;;6.70;3.60;;;12.90;99.90;;;;;;4975313;28;20396;-50
2021/12/31 12:35:21;;;;;;;6.90;3.58;;;12.90;99.90;;;;;;4975182;28;20391;-47
2021/12/31 12:38:00;;;;;;;4.85;3.25;;;13.00;99.90;;;;;;4976392;28;20508;-49
2021/12/31 12:40:38;;;;;;;7.50;3.40;;;13.00;99.90;;;;;;4973756;28;20392;-49
2021/12/31 12:43:12;;;;;;;5.85;3.42;;;13.00;99.90;;;;;;4973831;28;20750;-49
2021/12/31 12:45:39;;;;;;;6.20;3.60;;;13.00;99.90;;;;;;4973588;28;20391;-47
2021/12/31 12:48:05;;;;;;;6.27;3.80;;;13.00;99.90;;;;;;4972303;28;20398;-50
2021/12/31 12:50:30;;;;;;;5.70;3.70;;;13.10;99.90;;;;;;4972725;28;20395;-46
2021/12/31 12:52:56;;;;;;;4.43;3.53;;;13.10;99.90;;;;;;4972642;28;20432;-49
2021/12/31 12:55:22;;;;;;;7.03;3.93;;;13.00;99.90;;;;;;4974572;28;20278;-48
2021/12/31 12:57:53;;;;;;;;;;;12.90;99.90;;;;;;4975290;28;20023;-48